sensor_id;sensor_type;location;lat;lon;timestamp;pressure;altitude;pressure_sealevel;temperature;humidity
55517;BME280;41724;51.176;-0.708;2024-02-14T00:00:40;100685.82;;;10.49;100.00
55517;BME280;41724;51.176;-0.708;2024-02-14T00:03:08;100685.26;;;10.59;100.00
55517;BME280;41724;51.176;-0.708;2024-02-14T00:05:35;100682.16;;;10.57;100.00
55517;BME280;41724;51.176;-0.708;2024-02-14T00:08:02;100681.62;;;10.17;100.00
55517;BME280;41724;51.176;-0.708;2024-02-14T00:10:29;100683.62;;;10.76;100.00
55517;BME280;41724;51.176;-0.708;2024-02-14T00:12:56;100682.93;;;10.75;100.00
55517;BME280;41724;51.176;-0.708;2024-02-14T00:15:23;100684.06;;;10.75;100.00
55517;BME280;41724;51.176;-0.708;2024-02-14T00:17:51;100671.30;;;11.46;100.00
55517;BME280;41724;51.176;-0.708;2024-02-14T00:20:18;100681.16;;;10.70;100.00
55517;BME280;41724;51.176;-0.708;2024-02-14T00:22:45;100669.65;;;10.46;100.00
55517;BME280;41724;51.176;-0.708;2024-02-14T00:25:11;100673.56;;;11.13;100.00
55517;BME280;41724;51.176;-0.708;2024-02-14T00:27:39;100679.76;;;11.39;100.00
55517;BME280;41724;51.176;-0.708;2024-02-14T00:30:06;100671.77;;;10.36;100.00
55517;BME280;41724;51.176;-0.708;2024-02-14T00:32:34;100671.48;;;10.55;100.00
55517;BME280;41724;51.176;-0.708;2024-02-14T00:35:01;100673.66;;;10.28;100.00
55517;BME280;41724;51.176;-0.708;2024-02-14T00:37:28;100670.12;;;11.06;100.00
55517;BME280;41724;51.176;-0.708;2024-02-14T00:39:55;100662.30;;;11.03;100.00
55517;BME280;41724;51.176;-0.708;2024-02-14T00:42:22;100661.44;;;10.84;100.00
55517;BME280;41724;51.176;-0.708;2024-02-14T00:44:49;100662.33;;;10.96;100.00
55517;BME280;41724;51.176;-0.708;2024-02-14T00:47:17;100682.59;;;11.62;100.00
55517;BME280;41724;51.176;-0.708;2024-02-14T00:49:44;100671.99;;;10.30;100.00
55517;BME280;41724;51.176;-0.708;2024-02-14T00:52:11;100669.89;;;11.11;100.00
55517;BME280;41724;51.176;-0.708;2024-02-14T00:54:38;100668.67;;;11.36;100.00
55517;BME280;41724;51.176;-0.708;2024-02-14T00:57:05;100667.00;;;11.89;100.00
55517;BME280;41724;51.176;-0.708;2024-02-14T00:59:32;100667.75;;;11.55;100.00
55517;BME280;41724;51.176;-0.708;2024-02-14T01:01:59;100669.85;;;10.73;100.00
55517;BME280;41724;51.176;-0.708;2024-02-14T01:04:26;100668.33;;;11.46;100.00
55517;BME280;41724;51.176;-0.708;2024-02-14T01:06:53;100680.53;;;10.54;100.00
55517;BME280;41724;51.176;-0.708;2024-02-14T01:09:20;100681.84;;;10.46;100.00
55517;BME280;41724;51.176;-0.708;2024-02-14T01:11:47;100683.60;;;10.38;100.00
55517;BME280;41724;51.176;-0.708;2024-02-14T01:14:14;100691.49;;;10.17;100.00
55517;BME280;41724;51.176;-0.708;2024-02-14T01:16:43;100681.77;;;10.53;100.00
55517;BME280;41724;51.176;-0.708;2024-02-14T01:19:10;100689.89;;;10.10;100.00
55517;BME280;41724;51.176;-0.708;2024-02-14T01:21:37;100684.06;;;10.69;100.00
55517;BME280;41724;51.176;-0.708;2024-02-14T01:24:05;100684.10;;;11.32;100.00
55517;BME280;41724;51.176;-0.708;2024-02-14T01:26:32;100687.92;;;10.18;100.00
55517;BME280;41724;51.176;-0.708;2024-02-14T01:28:58;100690.24;;;9.95;100.00
55517;BME280;41724;51.176;-0.708;2024-02-14T01:31:25;100692.43;;;10.48;100.00
55517;BME280;41724;51.176;-0.708;2024-02-14T01:33:53;100692.14;;;11.18;100.00
55517;BME280;41724;51.176;-0.708;2024-02-14T01:36:20;100689.85;;;11.47;100.00
55517;BME280;41724;51.176;-0.708;2024-02-14T01:38:47;100689.55;;;11.23;100.00
55517;BME280;41724;51.176;-0.708;2024-02-14T01:41:14;100692.91;;;11.52;100.00
55517;BME280;41724;51.176;-0.708;2024-02-14T01:43:41;100689.91;;;10.66;100.00
55517;BME280;41724;51.176;-0.708;2024-02-14T01:46:08;100695.64;;;10.65;100.00
55517;BME280;41724;51.176;-0.708;2024-02-14T01:48:35;100683.67;;;11.19;100.00
55517;BME280;41724;51.176;-0.708;2024-02-14T01:51:04;100693.33;;;10.29;100.00
55517;BME280;41724;51.176;-0.708;2024-02-14T01:53:32;100681.31;;;11.04;100.00
55517;BME280;41724;51.176;-0.708;2024-02-14T01:55:59;100684.92;;;10.06;100.00
55517;BME280;41724;51.176;-0.708;2024-02-14T01:58:27;100687.69;;;10.80;100.00
55517;BME280;41724;51.176;-0.708;2024-02-14T02:00:54;100686.06;;;11.54;100.00
55517;BME280;41724;51.176;-0.708;2024-02-14T02:03:22;100686.02;;;11.31;100.00
55517;BME280;41724;51.176;-0.708;2024-02-14T02:05:50;100683.31;;;10.89;100.00
55517;BME280;41724;51.176;-0.708;2024-02-14T02:08:17;100681.47;;;10.53;100.00
55517;BME280;41724;51.176;-0.708;2024-02-14T02:10:44;100684.14;;;10.77;100.00
55517;BME280;41724;51.176;-0.708;2024-02-14T02:13:11;100683.97;;;10.36;100.00
55517;BME280;41724;51.176;-0.708;2024-02-14T02:15:38;100673.80;;;10.87;100.00
55517;BME280;41724;51.176;-0.708;2024-02-14T02:18:06;100678.34;;;10.21;100.00
55517;BME280;41724;51.176;-0.708;2024-02-14T02:20:33;100682.48;;;10.33;100.00
55517;BME280;41724;51.176;-0.708;2024-02-14T02:23:00;100683.42;;;9.99;100.00
55517;BME280;41724;51.176;-0.708;2024-02-14T02:25:28;100689.02;;;10.06;100.00
55517;BME280;41724;51.176;-0.708;2024-02-14T02:27:55;100694.02;;;10.34;100.00
55517;BME280;41724;51.176;-0.708;2024-02-14T02:30:22;100703.06;;;10.00;100.00
55517;BME280;41724;51.176;-0.708;2024-02-14T02:32:50;100693.29;;;10.46;100.00
55517;BME280;41724;51.176;-0.708;2024-02-14T02:35:17;100698.58;;;10.41;100.00
55517;BME280;41724;51.176;-0.708;2024-02-14T02:37:45;100699.58;;;9.79;100.00
55517;BME280;41724;51.176;-0.708;2024-02-14T02:40:12;100697.01;;;10.68;100.00
55517;BME280;41724;51.176;-0.708;2024-02-14T02:42:40;100701.72;;;10.22;100.00
55517;BME280;41724;51.176;-0.708;2024-02-14T02:45:07;100686.88;;;10.52;100.00
55517;BME280;41724;51.176;-0.708;2024-02-14T02:47:34;100687.14;;;10.18;100.00
55517;BME280;41724;51.176;-0.708;2024-02-14T02:50:01;100690.96;;;10.34;100.00
55517;BME280;41724;51.176;-0.708;2024-02-14T02:52:28;100689.51;;;10.13;100.00
55517;BME280;41724;51.176;-0.708;2024-02-14T02:54:55;100687.49;;;10.75;100.00
55517;BME280;41724;51.176;-0.708;2024-02-14T02:57:23;100693.30;;;10.31;100.00
55517;BME280;41724;51.176;-0.708;2024-02-14T02:59:50;100683.05;;;10.08;100.00
55517;BME280;41724;51.176;-0.708;2024-02-14T03:02:17;100684.37;;;10.02;100.00
55517;BME280;41724;51.176;-0.708;2024-02-14T03:04:45;100681.17;;;10.36;100.00
55517;BME280;41724;51.176;-0.708;2024-02-14T03:07:12;100682.21;;;10.68;100.00
55517;BME280;41724;51.176;-0.708;2024-02-14T03:09:39;100685.99;;;10.22;100.00
55517;BME280;41724;51.176;-0.708;2024-02-14T03:12:06;100681.60;;;9.99;100.00
55517;BME280;41724;51.176;-0.708;2024-02-14T03:14:34;100671.86;;;10.75;100.00
55517;BME280;41724;51.176;-0.708;2024-02-14T03:17:01;100668.82;;;10.80;100.00
55517;BME280;41724;51.176;-0.708;2024-02-14T03:19:29;100676.74;;;10.94;100.00
55517;BME280;41724;51.176;-0.708;2024-02-14T03:21:56;100692.41;;;10.22;100.00
55517;BME280;41724;51.176;-0.708;2024-02-14T03:24:24;100680.26;;;10.56;100.00
55517;BME280;41724;51.176;-0.708;2024-02-14T03:26:51;100685.68;;;10.28;100.00
55517;BME280;41724;51.176;-0.708;2024-02-14T03:29:19;100667.72;;;10.08;100.00
55517;BME280;41724;51.176;-0.708;2024-02-14T03:31:46;100662.97;;;10.95;100.00
55517;BME280;41724;51.176;-0.708;2024-02-14T03:34:13;100673.42;;;10.42;100.00
55517;BME280;41724;51.176;-0.708;2024-02-14T03:36:40;100674.78;;;10.03;100.00
55517;BME280;41724;51.176;-0.708;2024-02-14T03:39:07;100678.38;;;10.57;100.00
55517;BME280;41724;51.176;-0.708;2024-02-14T03:41:34;100677.93;;;9.70;100.00
55517;BME280;41724;51.176;-0.708;2024-02-14T03:44:01;100688.09;;;9.56;100.00
55517;BME280;41724;51.176;-0.708;2024-02-14T03:46:28;100692.26;;;10.36;100.00
55517;BME280;41724;51.176;-0.708;2024-02-14T03:48:55;100693.31;;;10.12;100.00
55517;BME280;41724;51.176;-0.708;2024-02-14T03:51:23;100694.98;;;10.90;100.00
55517;BME280;41724;51.176;-0.708;2024-02-14T03:53:51;100683.30;;;10.28;100.00
55517;BME280;41724;51.176;-0.708;2024-02-14T03:56:18;100682.78;;;10.03;100.00
55517;BME280;41724;51.176;-0.708;2024-02-14T03:58:44;100684.38;;;10.83;100.00
55517;BME280;41724;51.176;-0.708;2024-02-14T04:01:11;100697.06;;;10.30;100.00
55517;BME280;41724;51.176;-0.708;2024-02-14T04:03:38;100692.43;;;10.69;100.00
55517;BME280;41724;51.176;-0.708;2024-02-14T04:06:05;100688.80;;;10.68;100.00
55517;BME280;41724;51.176;-0.708;2024-02-14T04:08:32;100694.35;;;11.43;100.00
55517;BME280;41724;51.176;-0.708;2024-02-14T04:10:59;100699.12;;;10.68;100.00
55517;BME280;41724;51.176;-0.708;2024-02-14T04:13:26;100698.57;;;10.63;100.00
55517;BME280;41724;51.176;-0.708;2024-02-14T04:15:53;100691.69;;;11.09;100.00
55517;BME280;41724;51.176;-0.708;2024-02-14T04:18:20;100688.67;;;11.39;100.00
55517;BME280;41724;51.176;-0.708;2024-02-14T04:20:47;100701.55;;;10.37;100.00
55517;BME280;41724;51.176;-0.708;2024-02-14T04:23:14;100697.74;;;10.16;100.00
55517;BME280;41724;51.176;-0.708;2024-02-14T04:25:42;100686.41;;;10.33;100.00
55517;BME280;41724;51.176;-0.708;2024-02-14T04:28:09;100679.17;;;10.38;100.00
55517;BME280;41724;51.176;-0.708;2024-02-14T04:30:36;100689.60;;;10.58;100.00
55517;BME280;41724;51.176;-0.708;2024-02-14T04:33:03;100691.85;;;10.85;100.00
55517;BME280;41724;51.176;-0.708;2024-02-14T04:35:30;100683.06;;;9.71;100.00
55517;BME280;41724;51.176;-0.708;2024-02-14T04:37:57;100683.76;;;10.03;100.00
55517;BME280;41724;51.176;-0.708;2024-02-14T04:40:24;100676.66;;;10.49;100.00
55517;BME280;41724;51.176;-0.708;2024-02-14T04:42:51;100688.46;;;10.03;100.00
55517;BME280;41724;51.176;-0.708;2024-02-14T04:45:18;100688.59;;;10.03;100.00
55517;BME280;41724;51.176;-0.708;2024-02-14T04:47:46;100686.99;;;11.14;100.00
55517;BME280;41724;51.176;-0.708;2024-02-14T04:50:13;100695.36;;;10.62;100.00
55517;BME280;41724;51.176;-0.708;2024-02-14T04:52:40;100702.38;;;10.73;100.00
55517;BME280;41724;51.176;-0.708;2024-02-14T04:55:08;100703.04;;;10.71;100.00
55517;BME280;41724;51.176;-0.708;2024-02-14T04:57:35;100697.34;;;10.30;100.00
55517;BME280;41724;51.176;-0.708;2024-02-14T05:00:02;100693.77;;;10.58;100.00
55517;BME280;41724;51.176;-0.708;2024-02-14T05:02:29;100696.44;;;11.71;100.00
55517;BME280;41724;51.176;-0.708;2024-02-14T05:04:56;100702.90;;;10.38;100.00
55517;BME280;41724;51.176;-0.708;2024-02-14T05:07:23;100706.96;;;10.47;100.00
55517;BME280;41724;51.176;-0.708;2024-02-14T05:09:50;100695.70;;;11.23;100.00
55517;BME280;41724;51.176;-0.708;2024-02-14T05:12:17;100698.74;;;11.18;100.00
55517;BME280;41724;51.176;-0.708;2024-02-14T05:14:44;100691.38;;;10.94;100.00
55517;BME280;41724;51.176;-0.708;2024-02-14T05:17:11;100701.72;;;11.23;100.00
55517;BME280;41724;51.176;-0.708;2024-02-14T05:19:38;100706.91;;;10.62;100.00
55517;BME280;41724;51.176;-0.708;2024-02-14T05:22:05;100712.66;;;10.62;100.00
55517;BME280;41724;51.176;-0.708;2024-02-14T05:24:32;100712.43;;;10.51;100.00
55517;BME280;41724;51.176;-0.708;2024-02-14T05:26:59;100707.26;;;10.64;100.00
55517;BME280;41724;51.176;-0.708;2024-02-14T05:29:26;100710.93;;;11.54;100.00
55517;BME280;41724;51.176;-0.708;2024-02-14T05:31:54;100707.95;;;11.09;100.00
55517;BME280;41724;51.176;-0.708;2024-02-14T05:34:21;100708.41;;;10.81;100.00
55517;BME280;41724;51.176;-0.708;2024-02-14T05:36:48;100700.79;;;11.11;100.00
55517;BME280;41724;51.176;-0.708;2024-02-14T05:39:15;100703.21;;;10.10;100.00
55517;BME280;41724;51.176;-0.708;2024-02-14T05:41:42;100700.36;;;10.95;100.00
55517;BME280;41724;51.176;-0.708;2024-02-14T05:44:09;100708.64;;;10.44;100.00
55517;BME280;41724;51.176;-0.708;2024-02-14T05:46:36;100700.23;;;10.30;100.00
55517;BME280;41724;51.176;-0.708;2024-02-14T05:49:03;100707.50;;;10.41;100.00
55517;BME280;41724;51.176;-0.708;2024-02-14T05:51:30;100715.39;;;10.67;100.00
55517;BME280;41724;51.176;-0.708;2024-02-14T05:53:58;100721.35;;;10.75;100.00
55517;BME280;41724;51.176;-0.708;2024-02-14T05:56:25;100708.83;;;10.33;100.00
55517;BME280;41724;51.176;-0.708;2024-02-14T05:58:52;100701.08;;;11.03;100.00
55517;BME280;41724;51.176;-0.708;2024-02-14T06:01:19;100704.26;;;10.35;100.00
55517;BME280;41724;51.176;-0.708;2024-02-14T06:03:46;100708.60;;;10.77;100.00
55517;BME280;41724;51.176;-0.708;2024-02-14T06:06:13;100702.86;;;10.00;100.00
55517;BME280;41724;51.176;-0.708;2024-02-14T06:08:40;100713.59;;;10.58;100.00
55517;BME280;41724;51.176;-0.708;2024-02-14T06:11:07;100698.04;;;10.80;100.00
55517;BME280;41724;51.176;-0.708;2024-02-14T06:13:34;100697.88;;;11.08;100.00
55517;BME280;41724;51.176;-0.708;2024-02-14T06:16:01;100701.31;;;10.53;100.00
55517;BME280;41724;51.176;-0.708;2024-02-14T06:18:28;100697.98;;;10.94;100.00
55517;BME280;41724;51.176;-0.708;2024-02-14T06:20:56;100707.93;;;11.11;100.00
55517;BME280;41724;51.176;-0.708;2024-02-14T06:23:23;100704.81;;;10.28;100.00
55517;BME280;41724;51.176;-0.708;2024-02-14T06:25:50;100711.55;;;10.46;100.00
55517;BME280;41724;51.176;-0.708;2024-02-14T06:28:18;100705.82;;;9.90;100.00
55517;BME280;41724;51.176;-0.708;2024-02-14T06:30:44;100702.42;;;10.41;100.00
55517;BME280;41724;51.176;-0.708;2024-02-14T06:33:11;100725.15;;;9.65;100.00
55517;BME280;41724;51.176;-0.708;2024-02-14T06:35:38;100705.28;;;10.43;100.00
55517;BME280;41724;51.176;-0.708;2024-02-14T06:38:06;100702.71;;;10.57;100.00
55517;BME280;41724;51.176;-0.708;2024-02-14T06:40:33;100705.13;;;10.94;100.00
55517;BME280;41724;51.176;-0.708;2024-02-14T06:43:00;100710.06;;;10.63;100.00
55517;BME280;41724;51.176;-0.708;2024-02-14T06:45:27;100709.14;;;10.37;100.00
55517;BME280;41724;51.176;-0.708;2024-02-14T06:47:54;100711.46;;;9.94;100.00
55517;BME280;41724;51.176;-0.708;2024-02-14T06:50:21;100711.61;;;9.56;100.00
55517;BME280;41724;51.176;-0.708;2024-02-14T06:52:48;100700.56;;;10.11;100.00
55517;BME280;41724;51.176;-0.708;2024-02-14T06:55:15;100704.01;;;10.08;100.00
55517;BME280;41724;51.176;-0.708;2024-02-14T06:57:42;100714.11;;;9.69;100.00
55517;BME280;41724;51.176;-0.708;2024-02-14T07:00:10;100714.90;;;10.25;100.00
55517;BME280;41724;51.176;-0.708;2024-02-14T07:02:37;100701.25;;;9.76;100.00
55517;BME280;41724;51.176;-0.708;2024-02-14T07:05:04;100708.42;;;10.25;100.00
55517;BME280;41724;51.176;-0.708;2024-02-14T07:07:31;100709.98;;;9.98;100.00
55517;BME280;41724;51.176;-0.708;2024-02-14T07:09:58;100709.62;;;9.99;100.00
55517;BME280;41724;51.176;-0.708;2024-02-14T07:12:25;100717.87;;;10.29;100.00
55517;BME280;41724;51.176;-0.708;2024-02-14T07:14:52;100717.33;;;9.71;100.00
55517;BME280;41724;51.176;-0.708;2024-02-14T07:17:20;100720.14;;;10.45;100.00
55517;BME280;41724;51.176;-0.708;2024-02-14T07:19:47;100718.51;;;9.84;100.00
55517;BME280;41724;51.176;-0.708;2024-02-14T07:22:14;100733.52;;;9.62;100.00
55517;BME280;41724;51.176;-0.708;2024-02-14T07:24:41;100723.92;;;9.39;100.00
55517;BME280;41724;51.176;-0.708;2024-02-14T07:27:08;100716.27;;;10.10;100.00
55517;BME280;41724;51.176;-0.708;2024-02-14T07:29:35;100734.75;;;10.09;100.00
55517;BME280;41724;51.176;-0.708;2024-02-14T07:32:03;100727.91;;;9.80;100.00
55517;BME280;41724;51.176;-0.708;2024-02-14T07:34:30;100746.59;;;9.83;100.00
55517;BME280;41724;51.176;-0.708;2024-02-14T07:36:57;100750.58;;;10.28;100.00
55517;BME280;41724;51.176;-0.708;2024-02-14T07:39:24;100744.47;;;10.39;100.00
55517;BME280;41724;51.176;-0.708;2024-02-14T07:41:51;100748.90;;;10.33;100.00
55517;BME280;41724;51.176;-0.708;2024-02-14T07:44:18;100747.20;;;10.48;100.00
55517;BME280;41724;51.176;-0.708;2024-02-14T07:46:45;100745.69;;;10.46;100.00
55517;BME280;41724;51.176;-0.708;2024-02-14T07:49:13;100744.64;;;10.79;100.00
55517;BME280;41724;51.176;-0.708;2024-02-14T07:51:40;100744.81;;;10.79;100.00
55517;BME280;41724;51.176;-0.708;2024-02-14T07:54:06;100752.34;;;10.43;100.00
55517;BME280;41724;51.176;-0.708;2024-02-14T07:56:33;100753.52;;;10.54;100.00
55517;BME280;41724;51.176;-0.708;2024-02-14T07:59:01;100754.46;;;10.22;100.00
55517;BME280;41724;51.176;-0.708;2024-02-14T08:01:30;100759.80;;;11.33;100.00
55517;BME280;41724;51.176;-0.708;2024-02-14T08:03:57;100763.84;;;12.01;100.00
55517;BME280;41724;51.176;-0.708;2024-02-14T08:06:24;100765.00;;;11.06;100.00
55517;BME280;41724;51.176;-0.708;2024-02-14T08:08:51;100768.66;;;11.98;100.00
55517;BME280;41724;51.176;-0.708;2024-02-14T08:11:19;100786.33;;;10.67;100.00
55517;BME280;41724;51.176;-0.708;2024-02-14T08:13:46;100774.18;;;10.76;100.00
55517;BME280;41724;51.176;-0.708;2024-02-14T08:16:13;100773.63;;;10.42;100.00
55517;BME280;41724;51.176;-0.708;2024-02-14T08:18:40;100771.65;;;11.43;100.00
55517;BME280;41724;51.176;-0.708;2024-02-14T08:21:07;100774.81;;;11.01;100.00
55517;BME280;41724;51.176;-0.708;2024-02-14T08:23:34;100766.87;;;11.41;100.00
55517;BME280;41724;51.176;-0.708;2024-02-14T08:26:01;100768.83;;;10.56;100.00
55517;BME280;41724;51.176;-0.708;2024-02-14T08:28:28;100776.96;;;11.11;100.00
55517;BME280;41724;51.176;-0.708;2024-02-14T08:30:55;100776.14;;;10.80;100.00
55517;BME280;41724;51.176;-0.708;2024-02-14T08:33:22;100771.62;;;11.23;100.00
55517;BME280;41724;51.176;-0.708;2024-02-14T08:35:49;100764.52;;;11.32;100.00
55517;BME280;41724;51.176;-0.708;2024-02-14T08:38:16;100766.06;;;11.34;100.00
55517;BME280;41724;51.176;-0.708;2024-02-14T08:40:43;100763.59;;;11.88;100.00
55517;BME280;41724;51.176;-0.708;2024-02-14T08:43:10;100766.37;;;11.62;100.00
55517;BME280;41724;51.176;-0.708;2024-02-14T08:45:37;100772.22;;;11.48;100.00
55517;BME280;41724;51.176;-0.708;2024-02-14T08:48:06;100773.66;;;10.73;100.00
55517;BME280;41724;51.176;-0.708;2024-02-14T08:50:33;100771.67;;;11.38;100.00
55517;BME280;41724;51.176;-0.708;2024-02-14T08:53:00;100774.20;;;10.88;100.00
55517;BME280;41724;51.176;-0.708;2024-02-14T08:55:27;100777.30;;;11.02;100.00
55517;BME280;41724;51.176;-0.708;2024-02-14T08:57:54;100771.97;;;10.65;100.00
55517;BME280;41724;51.176;-0.708;2024-02-14T09:00:22;100765.29;;;12.02;100.00
55517;BME280;41724;51.176;-0.708;2024-02-14T09:02:48;100770.84;;;12.06;100.00
55517;BME280;41724;51.176;-0.708;2024-02-14T09:05:16;100768.75;;;12.13;100.00
55517;BME280;41724;51.176;-0.708;2024-02-14T09:07:43;100765.92;;;11.18;100.00
55517;BME280;41724;51.176;-0.708;2024-02-14T09:10:10;100754.05;;;11.80;100.00
55517;BME280;41724;51.176;-0.708;2024-02-14T09:12:37;100757.41;;;11.59;100.00
55517;BME280;41724;51.176;-0.708;2024-02-14T09:15:05;100761.88;;;10.70;100.00
55517;BME280;41724;51.176;-0.708;2024-02-14T09:17:32;100763.36;;;11.34;100.00
55517;BME280;41724;51.176;-0.708;2024-02-14T09:20:00;100770.08;;;11.45;100.00
55517;BME280;41724;51.176;-0.708;2024-02-14T09:22:27;100764.79;;;10.68;100.00
55517;BME280;41724;51.176;-0.708;2024-02-14T09:24:54;100766.96;;;11.20;100.00
55517;BME280;41724;51.176;-0.708;2024-02-14T09:27:21;100770.15;;;10.62;100.00
55517;BME280;41724;51.176;-0.708;2024-02-14T09:29:48;100765.37;;;10.64;100.00
55517;BME280;41724;51.176;-0.708;2024-02-14T09:32:16;100769.37;;;12.08;100.00
55517;BME280;41724;51.176;-0.708;2024-02-14T09:34:42;100770.49;;;11.71;100.00
55517;BME280;41724;51.176;-0.708;2024-02-14T09:37:10;100774.19;;;11.57;100.00
55517;BME280;41724;51.176;-0.708;2024-02-14T09:39:37;100779.97;;;11.60;100.00
55517;BME280;41724;51.176;-0.708;2024-02-14T09:42:13;100777.04;;;11.20;100.00
55517;BME280;41724;51.176;-0.708;2024-02-14T09:44:44;100783.85;;;11.44;100.00
55517;BME280;41724;51.176;-0.708;2024-02-14T09:47:12;100785.89;;;11.61;100.00
55517;BME280;41724;51.176;-0.708;2024-02-14T09:49:41;100799.90;;;11.16;100.00
55517;BME280;41724;51.176;-0.708;2024-02-14T09:52:10;100796.37;;;11.26;100.00
55517;BME280;41724;51.176;-0.708;2024-02-14T09:54:38;100793.62;;;11.84;100.00
55517;BME280;41724;51.176;-0.708;2024-02-14T09:57:06;100789.17;;;11.67;100.00
55517;BME280;41724;51.176;-0.708;2024-02-14T09:59:33;100809.79;;;11.28;100.00
55517;BME280;41724;51.176;-0.708;2024-02-14T10:02:02;100810.67;;;10.54;100.00
55517;BME280;41724;51.176;-0.708;2024-02-14T10:04:29;100796.94;;;9.95;100.00
55517;BME280;41724;51.176;-0.708;2024-02-14T10:06:56;100800.80;;;10.15;100.00
55517;BME280;41724;51.176;-0.708;2024-02-14T10:09:25;100796.33;;;9.99;100.00
55517;BME280;41724;51.176;-0.708;2024-02-14T10:11:52;100803.16;;;10.11;100.00
55517;BME280;41724;51.176;-0.708;2024-02-14T10:14:20;100799.09;;;9.93;100.00
55517;BME280;41724;51.176;-0.708;2024-02-14T10:16:47;100810.32;;;10.52;100.00
55517;BME280;41724;51.176;-0.708;2024-02-14T10:19:15;100803.59;;;11.14;100.00
55517;BME280;41724;51.176;-0.708;2024-02-14T10:21:43;100816.35;;;11.02;100.00
55517;BME280;41724;51.176;-0.708;2024-02-14T10:24:10;100808.80;;;10.82;100.00
55517;BME280;41724;51.176;-0.708;2024-02-14T10:26:37;100810.81;;;10.91;100.00
55517;BME280;41724;51.176;-0.708;2024-02-14T10:29:06;100813.87;;;10.99;100.00
55517;BME280;41724;51.176;-0.708;2024-02-14T10:31:57;100819.25;;;10.58;100.00
55517;BME280;41724;51.176;-0.708;2024-02-14T10:34:25;100806.23;;;10.27;100.00
55517;BME280;41724;51.176;-0.708;2024-02-14T10:36:56;100821.14;;;10.63;100.00
55517;BME280;41724;51.176;-0.708;2024-02-14T10:39:25;100823.28;;;10.96;100.00
55517;BME280;41724;51.176;-0.708;2024-02-14T10:41:53;100825.27;;;10.99;100.00
55517;BME280;41724;51.176;-0.708;2024-02-14T10:44:20;100825.03;;;11.52;100.00
55517;BME280;41724;51.176;-0.708;2024-02-14T10:46:49;100821.01;;;11.07;100.00
55517;BME280;41724;51.176;-0.708;2024-02-14T10:49:20;100817.52;;;11.20;100.00
55517;BME280;41724;51.176;-0.708;2024-02-14T10:51:49;100828.80;;;10.78;100.00
55517;BME280;41724;51.176;-0.708;2024-02-14T10:54:19;100829.40;;;11.10;100.00
55517;BME280;41724;51.176;-0.708;2024-02-14T10:56:49;100842.94;;;10.84;100.00
55517;BME280;41724;51.176;-0.708;2024-02-14T10:59:19;100846.32;;;10.81;100.00
55517;BME280;41724;51.176;-0.708;2024-02-14T11:01:47;100845.84;;;11.77;100.00
55517;BME280;41724;51.176;-0.708;2024-02-14T11:04:15;100861.65;;;11.43;100.00
55517;BME280;41724;51.176;-0.708;2024-02-14T11:06:45;100852.22;;;12.20;100.00
55517;BME280;41724;51.176;-0.708;2024-02-14T11:09:13;100863.09;;;11.69;100.00
55517;BME280;41724;51.176;-0.708;2024-02-14T11:11:40;100879.43;;;11.80;100.00
55517;BME280;41724;51.176;-0.708;2024-02-14T11:14:07;100869.18;;;10.71;100.00
55517;BME280;41724;51.176;-0.708;2024-02-14T11:16:34;100862.02;;;11.92;100.00
55517;BME280;41724;51.176;-0.708;2024-02-14T11:19:09;100864.07;;;11.39;100.00
55517;BME280;41724;51.176;-0.708;2024-02-14T11:21:39;100869.64;;;11.95;100.00
55517;BME280;41724;51.176;-0.708;2024-02-14T11:24:07;100873.07;;;11.76;100.00
55517;BME280;41724;51.176;-0.708;2024-02-14T11:26:46;100871.28;;;12.23;100.00
55517;BME280;41724;51.176;-0.708;2024-02-14T11:29:15;100859.25;;;11.30;100.00
55517;BME280;41724;51.176;-0.708;2024-02-14T11:31:42;100874.29;;;11.54;100.00
55517;BME280;41724;51.176;-0.708;2024-02-14T11:34:11;100877.00;;;11.09;100.00
55517;BME280;41724;51.176;-0.708;2024-02-14T11:36:42;100882.86;;;11.40;100.00
55517;BME280;41724;51.176;-0.708;2024-02-14T11:39:09;100883.00;;;11.38;100.00
55517;BME280;41724;51.176;-0.708;2024-02-14T11:41:36;100879.51;;;11.66;100.00
55517;BME280;41724;51.176;-0.708;2024-02-14T11:44:04;100883.98;;;11.61;100.00
55517;BME280;41724;51.176;-0.708;2024-02-14T11:46:31;100878.84;;;11.06;100.00
55517;BME280;41724;51.176;-0.708;2024-02-14T11:48:59;100873.04;;;11.86;100.00
55517;BME280;41724;51.176;-0.708;2024-02-14T11:51:27;100876.44;;;11.43;100.00
55517;BME280;41724;51.176;-0.708;2024-02-14T11:53:55;100880.54;;;11.67;100.00
55517;BME280;41724;51.176;-0.708;2024-02-14T11:56:22;100874.14;;;10.92;100.00
55517;BME280;41724;51.176;-0.708;2024-02-14T11:58:49;100867.83;;;11.50;100.00
55517;BME280;41724;51.176;-0.708;2024-02-14T12:01:17;100861.31;;;11.85;100.00
55517;BME280;41724;51.176;-0.708;2024-02-14T12:03:44;100858.29;;;11.82;100.00
55517;BME280;41724;51.176;-0.708;2024-02-14T12:06:12;100857.06;;;11.87;100.00
55517;BME280;41724;51.176;-0.708;2024-02-14T12:08:39;100853.02;;;12.13;100.00
55517;BME280;41724;51.176;-0.708;2024-02-14T12:11:06;100857.20;;;11.80;100.00
55517;BME280;41724;51.176;-0.708;2024-02-14T12:13:33;100856.29;;;11.72;100.00
55517;BME280;41724;51.176;-0.708;2024-02-14T12:16:01;100855.50;;;12.02;100.00
55517;BME280;41724;51.176;-0.708;2024-02-14T12:18:28;100860.89;;;11.30;100.00
55517;BME280;41724;51.176;-0.708;2024-02-14T12:21:03;100879.42;;;11.33;100.00
55517;BME280;41724;51.176;-0.708;2024-02-14T12:23:30;100867.67;;;11.14;100.00
55517;BME280;41724;51.176;-0.708;2024-02-14T12:26:01;100871.63;;;11.39;100.00
55517;BME280;41724;51.176;-0.708;2024-02-14T12:28:29;100868.92;;;11.00;100.00
55517;BME280;41724;51.176;-0.708;2024-02-14T12:30:57;100862.83;;;12.26;100.00